Time;durP1;ratioP1;P1;durP2;ratioP2;P2;SDS_P1;SDS_P2;PMS_P1;PMS_P2;Temp;Humidity;BMP_temperature;BMP_pressure;BME280_temperature;BME280_humidity;BME280_pressure;Samples;Min_cycle;Max_cycle;Signal;HPM_P1;HPM_P2
2021/12/23 00:01:10;;;;;;;34.07;17.10;;;1.80;72.60;;;;;;4956771;29;20272;-90
2021/12/23 00:03:36;;;;;;;32.63;18.37;;;1.90;72.70;;;;;;4962234;28;20431;-88
2021/12/23 00:06:02;;;;;;;28.93;15.23;;;1.90;72.80;;;;;;4973703;28;20180;-89
2021/12/23 00:08:28;;;;;;;27.77;17.23;;;1.90;73.00;;;;;;4971511;28;20431;-90
2021/12/23 00:10:53;;;;;;;32.10;16.63;;;1.70;73.30;;;;;;4981649;28;20363;-87
2021/12/23 00:13:19;;;;;;;34.60;17.80;;;1.80;73.50;;;;;;4986299;28;20192;-90
2021/12/23 00:23:52;;;;;;;41.25;20.48;;;2.00;74.00;;;;;;4993118;28;20245;-90
2021/12/23 00:26:18;;;;;;;42.35;18.98;;;1.90;74.50;;;;;;4991363;28;20187;-90
2021/12/23 00:28:46;;;;;;;39.75;19.65;;;2.00;74.90;;;;;;4994435;28;20184;-89
2021/12/23 00:31:12;;;;;;;36.38;20.40;;;2.00;75.10;;;;;;4982011;28;20220;-89
2021/12/23 00:33:40;;;;;;;40.40;20.30;;;1.90;75.60;;;;;;4988535;28;20267;-89
2021/12/23 00:36:08;;;;;;;46.38;21.50;;;1.60;76.30;;;;;;4977663;28;20198;-89
2021/12/23 00:38:38;;;;;;;41.33;20.83;;;1.50;76.90;;;;;;4982859;28;20215;-89
2021/12/23 00:41:04;;;;;;;47.17;21.00;;;1.70;77.30;;;;;;4981290;28;20275;-89
2021/12/23 00:43:31;;;;;;;46.53;22.33;;;1.80;77.20;;;;;;4970226;28;20181;-90
2021/12/23 00:45:58;;;;;;;49.70;23.15;;;1.90;77.10;;;;;;4979377;28;20198;-90
2021/12/23 00:48:24;;;;;;;49.05;22.60;;;1.90;77.30;;;;;;4983589;28;20187;-90
2021/12/23 00:50:50;;;;;;;46.30;20.75;;;1.90;77.10;;;;;;4983300;28;20295;-90
2021/12/23 00:53:19;;;;;;;44.23;24.43;;;1.80;77.60;;;;;;4991840;28;20188;-89
2021/12/23 00:55:48;;;;;;;56.88;23.80;;;1.90;77.90;;;;;;4981088;28;20419;-90
2021/12/23 00:58:14;;;;;;;50.65;23.50;;;1.90;77.50;;;;;;4971088;28;20243;-90
2021/12/23 01:00:40;;;;;;;50.10;23.80;;;2.00;77.20;;;;;;4968510;28;20197;-90
2021/12/23 01:03:06;;;;;;;58.27;23.20;;;1.80;76.70;;;;;;4963465;29;20419;-90
2021/12/23 01:05:32;;;;;;;59.38;23.98;;;1.90;76.60;;;;;;4960356;29;20180;-90
2021/12/23 01:07:58;;;;;;;58.28;25.15;;;1.80;76.40;;;;;;4959506;29;20270;-90
2021/12/23 01:10:24;;;;;;;51.50;24.13;;;1.80;76.40;;;;;;4961252;28;20185;-90
2021/12/23 01:12:57;;;;;;;60.47;26.33;;;1.90;76.40;;;;;;4991496;28;20423;-87
2021/12/23 01:18:07;;;;;;;59.30;26.85;;;2.10;77.10;;;;;;4961530;28;20299;-90
2021/12/23 01:20:36;;;;;;;58.42;26.33;;;2.30;77.10;;;;;;4967513;28;20766;-90
2021/12/23 01:23:11;;;;;;;67.13;25.67;;;2.30;77.20;;;;;;4961018;28;20255;-89
2021/12/23 01:25:39;;;;;;;66.57;28.38;;;2.20;76.30;;;;;;4977275;28;20311;-90
2021/12/23 01:28:07;;;;;;;62.25;26.20;;;2.30;76.30;;;;;;4973563;28;20711;-89
2021/12/23 01:30:37;;;;;;;61.05;24.73;;;2.30;76.90;;;;;;4969789;28;20208;-89
2021/12/23 01:33:05;;;;;;;69.38;27.30;;;2.10;76.70;;;;;;4966002;28;20199;-86
2021/12/23 01:35:32;;;;;;;65.75;26.58;;;2.40;76.80;;;;;;4971564;28;20200;-86
2021/12/23 01:37:59;;;;;;;68.00;28.40;;;2.20;76.50;;;;;;4988440;28;20195;-91
2021/12/23 01:40:25;;;;;;;61.28;25.65;;;2.10;76.80;;;;;;4974120;28;20184;-90
2021/12/23 01:42:51;;;;;;;67.93;26.27;;;2.30;77.20;;;;;;4981385;28;20271;-90
2021/12/23 01:45:20;;;;;;;77.88;27.67;;;2.10;77.10;;;;;;4968978;28;20427;-90
2021/12/23 01:47:47;;;;;;;66.78;24.50;;;2.20;77.20;;;;;;4975022;28;20181;-90
2021/12/23 01:50:16;;;;;;;73.40;25.35;;;2.00;77.40;;;;;;4964758;28;20194;-90
2021/12/23 01:52:42;;;;;;;73.53;26.30;;;1.80;77.60;;;;;;4959694;28;20184;-90
2021/12/23 01:55:10;;;;;;;61.70;26.23;;;1.90;78.00;;;;;;4976257;28;20187;-90
2021/12/23 01:57:39;;;;;;;58.13;25.00;;;2.00;78.40;;;;;;4984951;28;20498;-90
2021/12/23 02:00:08;;;;;;;66.38;25.13;;;2.20;78.30;;;;;;4976945;28;20199;-93
2021/12/23 02:02:35;;;;;;;60.03;25.77;;;1.90;77.60;;;;;;4972792;28;20216;-90
2021/12/23 02:05:00;;;;;;;64.90;24.33;;;2.00;77.70;;;;;;4991082;28;20164;-90
2021/12/23 02:07:26;;;;;;;54.77;23.47;;;2.00;78.00;;;;;;4992258;28;20654;-90
2021/12/23 02:09:55;;;;;;;56.70;23.67;;;2.10;78.20;;;;;;4976301;28;20223;-90
2021/12/23 02:12:21;;;;;;;64.70;25.60;;;1.80;78.10;;;;;;4971403;28;20534;-90
2021/12/23 02:14:47;;;;;;;61.63;25.00;;;1.40;79.30;;;;;;4979418;28;20184;-90
2021/12/23 02:17:13;;;;;;;64.30;24.27;;;1.60;80.00;;;;;;4980418;28;20182;-90
2021/12/23 02:19:38;;;;;;;68.43;24.10;;;1.80;79.60;;;;;;4970867;28;20204;-89
2021/12/23 02:22:04;;;;;;;67.17;24.57;;;1.90;79.20;;;;;;4944379;29;20281;-90
2021/12/23 02:24:30;;;;;;;58.60;23.90;;;1.90;78.80;;;;;;4957817;29;20173;-90
2021/12/23 02:26:56;;;;;;;51.30;23.07;;;2.00;78.40;;;;;;4968511;28;20452;-90
2021/12/23 02:29:21;;;;;;;64.13;23.70;;;2.00;77.90;;;;;;4977310;28;20456;-90
2021/12/23 02:31:49;;;;;;;56.13;24.40;;;1.70;78.40;;;;;;4976918;28;20522;-90
2021/12/23 02:34:16;;;;;;;59.47;23.30;;;1.80;79.00;;;;;;4972429;28;20492;-91
2021/12/23 02:36:42;;;;;;;63.53;23.27;;;1.80;79.00;;;;;;4966472;28;20283;-90
2021/12/23 02:39:08;;;;;;;52.77;21.77;;;2.10;79.10;;;;;;4964932;28;20196;-90
2021/12/23 02:41:33;;;;;;;67.57;26.13;;;1.90;79.70;;;;;;4972150;28;20534;-90
2021/12/23 02:43:59;;;;;;;61.00;24.93;;;2.00;79.10;;;;;;4967097;28;20184;-90
2021/12/23 02:46:25;;;;;;;58.47;24.50;;;2.10;79.00;;;;;;4962555;28;20424;-89
2021/12/23 02:48:50;;;;;;;66.33;27.00;;;2.20;79.40;;;;;;4963876;28;20185;-89
2021/12/23 02:51:16;;;;;;;59.50;26.43;;;2.20;78.30;;;;;;4970994;28;20235;-89
2021/12/23 02:53:44;;;;;;;51.53;24.08;;;2.00;78.10;;;;;;4979660;28;20203;-89
2021/12/23 02:56:15;;;;;;;68.85;23.20;;;1.90;78.10;;;;;;4976387;28;20184;-89
2021/12/23 02:58:42;;;;;;;57.40;21.17;;;1.70;78.50;;;;;;4982580;28;20188;-89
2021/12/23 03:01:09;;;;;;;53.72;22.40;;;1.80;78.90;;;;;;4985005;28;20197;-88
2021/12/23 03:03:36;;;;;;;58.45;24.23;;;1.70;79.30;;;;;;4982945;28;20267;-89
2021/12/23 03:06:01;;;;;;;71.65;25.65;;;1.60;79.70;;;;;;4993806;28;20223;-89
2021/12/23 03:08:27;;;;;;;56.47;21.87;;;1.30;80.60;;;;;;4977442;28;20220;-88
2021/12/23 03:10:53;;;;;;;61.17;23.37;;;1.50;81.20;;;;;;4976928;28;20471;-89
2021/12/23 03:13:18;;;;;;;60.43;23.30;;;1.50;81.40;;;;;;4977460;28;20671;-89
2021/12/23 03:15:45;;;;;;;63.50;21.90;;;1.30;81.80;;;;;;4983671;28;20427;-89
2021/12/23 03:18:10;;;;;;;54.88;24.20;;;1.40;82.00;;;;;;4985023;28;20232;-89
2021/12/23 03:20:36;;;;;;;60.73;23.60;;;1.40;82.20;;;;;;4966685;29;20622;-89
2021/12/23 03:23:02;;;;;;;59.37;22.10;;;1.50;82.10;;;;;;4966377;28;20555;-89
2021/12/23 03:25:27;;;;;;;56.22;21.02;;;1.60;81.90;;;;;;4979314;28;20179;-89
2021/12/23 03:27:53;;;;;;;59.30;23.17;;;1.50;81.50;;;;;;4968585;28;20195;-88
2021/12/23 03:30:19;;;;;;;62.67;23.90;;;1.60;81.10;;;;;;4965622;28;20215;-89
2021/12/23 03:32:44;;;;;;;77.13;26.47;;;1.90;81.00;;;;;;4957720;29;20628;-89
2021/12/23 03:35:10;;;;;;;52.90;21.83;;;1.80;80.80;;;;;;4957231;29;20188;-89
2021/12/23 03:37:36;;;;;;;66.57;24.67;;;1.70;81.20;;;;;;4956372;29;20184;-90
2021/12/23 03:40:03;;;;;;;59.20;21.77;;;1.60;81.30;;;;;;4957231;28;20408;-90
2021/12/23 03:42:29;;;;;;;76.93;25.35;;;1.40;81.90;;;;;;4972490;28;20588;-90
2021/12/23 03:44:55;;;;;;;68.97;25.90;;;1.20;82.10;;;;;;4956483;29;20655;-90
2021/12/23 03:47:20;;;;;;;66.93;24.07;;;1.20;83.30;;;;;;4974992;28;20430;-90
2021/12/23 03:49:46;;;;;;;61.60;23.70;;;1.20;83.10;;;;;;4962489;28;20220;-90
2021/12/23 03:52:12;;;;;;;68.87;26.73;;;1.40;83.50;;;;;;4973203;28;20258;-90
2021/12/23 03:54:38;;;;;;;71.23;26.67;;;1.40;83.30;;;;;;4960964;28;20180;-91
2021/12/23 03:57:04;;;;;;;65.22;26.27;;;1.30;83.40;;;;;;4975449;28;20188;-90
2021/12/23 03:59:30;;;;;;;70.60;28.10;;;1.20;83.50;;;;;;4963490;28;20207;-90
2021/12/23 04:01:56;;;;;;;68.10;25.83;;;1.20;83.50;;;;;;4955203;29;20201;-91
2021/12/23 04:04:22;;;;;;;65.17;25.60;;;1.40;83.50;;;;;;4955711;29;20420;-90
2021/12/23 04:06:47;;;;;;;63.93;26.07;;;1.40;83.40;;;;;;4964635;28;20417;-90
2021/12/23 04:09:13;;;;;;;64.90;24.77;;;1.30;83.30;;;;;;4971872;28;20895;-90
2021/12/23 04:11:39;;;;;;;61.97;23.40;;;1.40;83.80;;;;;;4955955;29;20212;-89
2021/12/23 04:14:05;;;;;;;61.72;24.17;;;1.40;83.50;;;;;;4973254;28;20267;-89
2021/12/23 04:16:30;;;;;;;62.00;24.20;;;1.70;83.40;;;;;;4972172;28;20271;-90
2021/12/23 04:18:56;;;;;;;62.43;22.60;;;1.90;83.00;;;;;;4956432;29;20204;-90
2021/12/23 04:21:22;;;;;;;71.07;24.35;;;2.00;82.40;;;;;;4959172;28;20279;-90
2021/12/23 04:23:48;;;;;;;54.40;22.85;;;1.80;82.00;;;;;;4972134;28;20383;-90
2021/12/23 04:26:14;;;;;;;63.13;22.60;;;1.80;81.70;;;;;;4974504;28;20222;-91
2021/12/23 04:28:47;;;;;;;55.00;23.23;;;1.70;81.60;;;;;;4967841;28;20436;-89
2021/12/23 04:31:16;;;;;;;64.25;23.55;;;1.80;81.50;;;;;;4963112;28;20239;-90
2021/12/23 04:33:43;;;;;;;73.22;24.20;;;1.70;81.70;;;;;;4960809;28;20200;-89
2021/12/23 04:36:09;;;;;;;65.13;23.23;;;1.70;81.80;;;;;;4960916;28;20196;-89
2021/12/23 04:38:37;;;;;;;57.65;22.30;;;1.90;81.60;;;;;;4972889;28;20218;-90
2021/12/23 04:41:03;;;;;;;48.65;22.08;;;1.70;81.30;;;;;;4975748;28;20682;-90
2021/12/23 04:43:29;;;;;;;58.63;20.67;;;1.60;81.40;;;;;;4970203;28;20212;-90
2021/12/23 04:45:54;;;;;;;68.13;21.73;;;1.70;81.80;;;;;;4964690;28;20184;-90
2021/12/23 04:48:20;;;;;;;53.60;21.20;;;1.60;81.60;;;;;;4956601;28;20187;-91
2021/12/23 04:50:46;;;;;;;52.00;21.97;;;1.50;81.80;;;;;;4961493;28;20611;-90
2021/12/23 04:53:12;;;;;;;55.22;21.98;;;1.50;82.20;;;;;;4967803;28;20181;-89
2021/12/23 04:55:38;;;;;;;59.17;22.27;;;1.50;82.50;;;;;;4962957;28;20191;-90
2021/12/23 04:58:03;;;;;;;61.93;22.73;;;1.50;82.70;;;;;;4968651;28;20234;-90
2021/12/23 05:00:29;;;;;;;57.80;23.27;;;1.50;82.80;;;;;;4975099;28;20188;-90
2021/12/23 05:02:55;;;;;;;64.13;22.63;;;1.70;82.90;;;;;;4960773;28;20191;-90
2021/12/23 05:05:21;;;;;;;55.47;22.30;;;1.70;82.00;;;;;;4978120;28;20419;-90
2021/12/23 05:07:48;;;;;;;50.23;18.97;;;1.50;81.70;;;;;;4968097;28;20471;-90
2021/12/23 05:10:16;;;;;;;52.53;20.85;;;1.60;81.70;;;;;;4974235;28;20434;-90
2021/12/23 05:12:46;;;;;;;64.60;21.45;;;1.60;81.70;;;;;;4969754;28;20187;-90
2021/12/23 05:15:15;;;;;;;60.80;22.40;;;1.50;81.80;;;;;;4958497;29;20185;-90
2021/12/23 05:17:41;;;;;;;55.17;20.70;;;1.60;82.10;;;;;;4977798;28;20194;-90
2021/12/23 05:20:09;;;;;;;51.40;20.52;;;1.60;82.30;;;;;;4978562;28;20179;-90
2021/12/23 05:22:35;;;;;;;70.60;22.02;;;1.60;82.30;;;;;;4970068;28;20664;-90
2021/12/23 05:25:02;;;;;;;60.20;20.52;;;1.70;82.60;;;;;;4959191;29;20184;-90
2021/12/23 05:27:37;;;;;;;49.55;19.85;;;1.90;82.20;;;;;;4959988;29;20180;-90
2021/12/23 05:30:04;;;;;;;59.42;20.80;;;2.00;81.90;;;;;;4978709;28;20195;-91
2021/12/23 05:32:30;;;;;;;62.28;23.10;;;2.10;81.70;;;;;;4980650;28;20220;-89
2021/12/23 05:34:56;;;;;;;51.17;20.97;;;2.10;81.30;;;;;;4962916;28;20281;-91
2021/12/23 05:37:21;;;;;;;56.70;21.23;;;2.00;81.00;;;;;;4958758;29;20417;-90
2021/12/23 05:39:47;;;;;;;48.57;19.60;;;2.10;80.60;;;;;;4942769;29;20483;-89
2021/12/23 05:42:13;;;;;;;52.37;19.90;;;2.40;80.20;;;;;;4964655;28;20204;-90
2021/12/23 05:44:38;;;;;;;56.17;18.33;;;2.30;79.70;;;;;;4953571;29;20444;-90
2021/12/23 05:47:13;;;;;;;52.47;21.97;;;2.10;79.90;;;;;;4972763;28;20267;-90
2021/12/23 05:49:39;;;;;;;46.10;17.85;;;2.20;80.40;;;;;;4978272;28;20190;-90
2021/12/23 05:52:05;;;;;;;62.93;20.87;;;2.40;80.20;;;;;;4977511;28;20200;-90
2021/12/23 05:54:31;;;;;;;48.28;20.38;;;2.40;79.90;;;;;;4962850;28;20456;-87
2021/12/23 05:57:01;;;;;;;43.33;18.63;;;2.40;79.80;;;;;;4980814;28;20181;-86
2021/12/23 05:59:29;;;;;;;50.40;20.02;;;2.60;79.30;;;;;;4991555;28;20204;-89
2021/12/23 06:01:55;;;;;;;48.25;19.25;;;2.50;78.80;;;;;;4980961;28;20240;-89
2021/12/23 06:04:21;;;;;;;48.75;19.02;;;2.20;79.10;;;;;;4979438;28;20176;-90
2021/12/23 06:06:46;;;;;;;55.30;19.63;;;2.20;79.40;;;;;;4971292;28;20682;-90
2021/12/23 06:09:12;;;;;;;56.73;21.50;;;2.30;79.80;;;;;;4977373;28;20230;-89
2021/12/23 06:11:38;;;;;;;47.97;20.90;;;2.20;79.40;;;;;;4961308;28;20284;-89
2021/12/23 06:14:04;;;;;;;45.20;19.10;;;2.10;79.70;;;;;;4957905;29;20456;-90
2021/12/23 06:16:30;;;;;;;44.43;19.23;;;1.90;80.00;;;;;;4963554;28;20436;-90
2021/12/23 06:19:04;;;;;;;44.93;18.87;;;1.90;80.60;;;;;;4977404;28;20765;-89
2021/12/23 06:21:31;;;;;;;44.42;20.20;;;1.80;81.90;;;;;;4963082;28;20200;-90
2021/12/23 06:23:58;;;;;;;60.92;21.38;;;1.80;81.60;;;;;;4966832;28;20188;-89
2021/12/23 06:26:24;;;;;;;47.17;20.52;;;1.80;81.80;;;;;;4976890;28;20180;-89
2021/12/23 06:28:50;;;;;;;57.92;21.65;;;1.90;82.00;;;;;;4968925;28;20185;-89
2021/12/23 06:31:15;;;;;;;47.07;18.47;;;2.00;82.20;;;;;;4958153;28;20707;-89
2021/12/23 06:33:41;;;;;;;53.73;19.70;;;2.10;82.30;;;;;;4958098;29;20208;-89
2021/12/23 06:36:07;;;;;;;49.67;19.60;;;1.90;81.80;;;;;;4972833;28;20430;-89
2021/12/23 06:38:33;;;;;;;57.37;22.70;;;2.10;81.60;;;;;;4957015;28;20279;-89
2021/12/23 06:40:59;;;;;;;51.22;19.10;;;2.10;81.00;;;;;;4973197;28;20630;-90
2021/12/23 06:43:24;;;;;;;51.07;20.33;;;2.10;80.90;;;;;;4958471;29;20275;-89
2021/12/23 06:45:50;;;;;;;55.93;19.70;;;2.20;80.70;;;;;;4957502;28;21039;-89
2021/12/23 06:48:23;;;;;;;47.00;19.30;;;2.20;80.50;;;;;;4976490;28;20279;-90
2021/12/23 06:50:53;;;;;;;47.25;20.42;;;2.10;80.40;;;;;;4972234;28;20207;-89
2021/12/23 06:53:19;;;;;;;54.05;20.88;;;2.20;80.50;;;;;;4976882;28;20562;-89
2021/12/23 06:55:45;;;;;;;51.67;19.57;;;2.50;80.40;;;;;;4966628;28;20256;-90
2021/12/23 06:58:11;;;;;;;45.93;19.97;;;2.60;80.00;;;;;;4965221;28;20552;-89
2021/12/23 07:00:37;;;;;;;48.57;18.50;;;2.30;79.80;;;;;;4969653;28;20699;-89
2021/12/23 07:03:03;;;;;;;63.63;20.85;;;2.40;79.80;;;;;;4977736;28;20200;-89
2021/12/23 07:05:29;;;;;;;60.92;20.60;;;2.60;79.90;;;;;;4977678;28;20465;-87
2021/12/23 07:07:57;;;;;;;53.08;19.85;;;2.70;79.50;;;;;;4962109;29;20212;-87
2021/12/23 07:10:28;;;;;;;44.88;19.55;;;2.70;79.20;;;;;;4965209;28;20257;-90
2021/12/23 07:12:55;;;;;;;65.88;21.08;;;2.60;79.20;;;;;;4964540;28;20196;-90
2021/12/23 07:15:23;;;;;;;42.35;21.40;;;2.40;79.60;;;;;;4986753;28;20184;-89
2021/12/23 07:17:49;;;;;;;46.90;19.58;;;2.40;80.00;;;;;;4968618;28;20180;-89
2021/12/23 07:20:15;;;;;;;49.03;20.75;;;2.60;80.00;;;;;;4966660;28;20180;-81
2021/12/23 07:22:41;;;;;;;46.10;19.10;;;2.80;79.70;;;;;;4967608;28;20677;-83
2021/12/23 07:25:08;;;;;;;53.07;19.87;;;2.90;79.10;;;;;;4976228;28;20232;-86
2021/12/23 07:27:34;;;;;;;47.55;21.00;;;2.90;79.00;;;;;;4975592;28;20957;-85
2021/12/23 07:30:00;;;;;;;49.05;21.60;;;3.00;79.00;;;;;;4975580;28;20191;-85
2021/12/23 07:32:26;;;;;;;54.95;19.83;;;3.00;78.30;;;;;;4975540;28;20218;-86
2021/12/23 07:34:52;;;;;;;52.13;19.83;;;2.90;78.20;;;;;;4966743;28;20177;-85
2021/12/23 07:37:18;;;;;;;50.37;19.30;;;2.80;78.40;;;;;;4955560;29;20191;-84
2021/12/23 07:39:44;;;;;;;55.10;18.75;;;2.80;78.40;;;;;;4957075;28;20479;-85
2021/12/23 07:42:15;;;;;;;46.53;21.30;;;2.70;78.60;;;;;;4956049;29;20218;-84
2021/12/23 07:44:44;;;;;;;54.92;18.83;;;2.90;78.80;;;;;;4955681;29;20529;-86
2021/12/23 07:47:11;;;;;;;55.65;22.58;;;2.90;78.70;;;;;;4956122;29;20185;-85
2021/12/23 07:49:36;;;;;;;54.00;20.15;;;2.90;78.60;;;;;;4956147;29;20664;-85
2021/12/23 07:52:03;;;;;;;50.67;20.27;;;2.80;78.80;;;;;;4955498;29;20205;-85
2021/12/23 07:54:28;;;;;;;46.03;18.85;;;2.80;79.00;;;;;;4955174;29;20644;-84
2021/12/23 07:56:54;;;;;;;46.57;19.80;;;2.90;79.10;;;;;;4955360;29;20192;-85
2021/12/23 07:59:20;;;;;;;44.80;19.73;;;3.00;78.70;;;;;;4955553;29;20211;-85
2021/12/23 08:01:45;;;;;;;46.27;18.37;;;3.20;78.40;;;;;;4955893;29;20224;-85
2021/12/23 08:04:11;;;;;;;42.87;19.07;;;3.20;78.00;;;;;;4960094;29;20173;-84
2021/12/23 08:06:37;;;;;;;52.90;19.67;;;3.20;77.70;;;;;;4955710;29;20456;-84
2021/12/23 08:09:03;;;;;;;47.67;20.53;;;3.30;77.50;;;;;;4956581;29;20420;-84
2021/12/23 08:11:29;;;;;;;51.08;20.67;;;3.30;77.20;;;;;;4956357;29;20479;-84
2021/12/23 08:13:55;;;;;;;47.97;19.67;;;3.40;76.90;;;;;;4956290;29;20203;-84
2021/12/23 08:16:21;;;;;;;41.20;19.50;;;3.40;76.80;;;;;;4956543;29;20428;-84
2021/12/23 08:18:47;;;;;;;41.30;18.00;;;3.50;76.60;;;;;;4957349;29;20216;-84
2021/12/23 08:21:13;;;;;;;48.90;19.38;;;3.40;76.50;;;;;;4957851;29;20435;-85
2021/12/23 08:23:39;;;;;;;46.60;19.53;;;3.50;76.40;;;;;;4957922;29;20603;-85
2021/12/23 08:26:11;;;;;;;49.10;20.33;;;3.60;75.90;;;;;;4956628;29;20248;-84
2021/12/23 08:28:37;;;;;;;52.60;20.85;;;3.50;75.50;;;;;;4958048;29;20191;-84
2021/12/23 08:31:02;;;;;;;47.10;20.73;;;3.30;75.60;;;;;;4962122;28;20378;-84
2021/12/23 08:33:28;;;;;;;53.70;21.80;;;3.50;75.80;;;;;;4961855;29;20468;-84
2021/12/23 08:35:54;;;;;;;50.50;21.17;;;3.40;75.50;;;;;;4938808;29;20804;-84
2021/12/23 08:38:21;;;;;;;58.85;23.17;;;3.50;75.60;;;;;;4923999;29;20312;-84
2021/12/23 08:40:47;;;;;;;49.73;20.53;;;3.10;75.60;;;;;;4941787;29;20689;-85
2021/12/23 08:43:13;;;;;;;47.23;20.33;;;3.30;76.10;;;;;;4940817;29;20596;-85
2021/12/23 08:45:39;;;;;;;47.00;19.20;;;3.30;76.10;;;;;;4942058;29;20201;-85
2021/12/23 08:48:05;;;;;;;54.70;21.30;;;3.30;76.10;;;;;;4940566;29;20667;-85
2021/12/23 08:50:32;;;;;;;44.35;20.35;;;3.10;76.10;;;;;;4940807;29;20441;-85
2021/12/23 08:52:58;;;;;;;45.58;20.10;;;3.00;76.30;;;;;;4943341;29;20193;-85
2021/12/23 08:55:27;;;;;;;58.67;22.27;;;3.00;76.30;;;;;;4949744;29;20185;-85
2021/12/23 08:57:57;;;;;;;42.40;21.42;;;3.10;76.30;;;;;;4950959;29;20189;-85
2021/12/23 09:00:26;;;;;;;57.72;21.05;;;3.00;76.20;;;;;;4945516;29;20621;-85
2021/12/23 09:02:52;;;;;;;44.20;19.25;;;3.00;76.40;;;;;;4941494;29;20223;-85
2021/12/23 09:05:19;;;;;;;44.00;20.60;;;3.00;76.50;;;;;;4940924;29;20181;-85
2021/12/23 09:07:45;;;;;;;44.33;20.60;;;3.00;76.40;;;;;;4950801;29;20188;-85
2021/12/23 09:10:11;;;;;;;53.22;19.63;;;3.10;76.50;;;;;;4940902;29;20629;-85
2021/12/23 09:12:38;;;;;;;50.20;21.17;;;3.10;76.50;;;;;;4942511;29;20324;-85
2021/12/23 09:15:05;;;;;;;47.97;21.38;;;2.90;76.70;;;;;;4961217;29;20460;-85
2021/12/23 09:17:30;;;;;;;53.00;21.40;;;2.90;77.10;;;;;;4963803;29;20213;-85
2021/12/23 09:19:56;;;;;;;60.00;24.00;;;3.10;77.30;;;;;;4961953;29;20216;-86
2021/12/23 09:22:22;;;;;;;46.22;21.13;;;3.00;77.00;;;;;;4965251;28;20436;-85
2021/12/23 09:24:52;;;;;;;43.63;19.57;;;2.90;77.50;;;;;;4963398;29;20209;-85
2021/12/23 09:27:34;;;;;;;49.53;21.08;;;2.80;77.90;;;;;;4964175;29;20216;-85
2021/12/23 09:32:53;;;;;;;47.15;19.23;;;3.10;78.40;;;;;;4967711;29;20227;-84
2021/12/23 09:35:24;;;;;;;46.42;18.88;;;3.20;78.00;;;;;;4967495;28;20176;-84
2021/12/23 09:37:51;;;;;;;47.05;21.13;;;3.50;77.70;;;;;;4961280;28;20201;-84
2021/12/23 09:40:18;;;;;;;43.80;19.45;;;3.60;77.00;;;;;;4960700;29;20271;-83
2021/12/23 09:42:47;;;;;;;45.67;19.15;;;3.70;76.60;;;;;;4961635;28;20266;-83
2021/12/23 09:45:17;;;;;;;44.45;20.25;;;3.80;76.00;;;;;;4960542;29;20257;-84
2021/12/23 09:47:46;;;;;;;41.35;18.88;;;3.50;75.80;;;;;;4966201;28;20660;-84
2021/12/23 09:50:15;;;;;;;47.65;20.55;;;3.40;76.30;;;;;;4959721;28;20193;-84
2021/12/23 09:52:50;;;;;;;44.30;19.70;;;3.60;77.30;;;;;;4958845;29;20177;-84
2021/12/23 09:55:18;;;;;;;45.50;19.00;;;3.60;76.50;;;;;;4963362;29;20188;-84
2021/12/23 09:57:48;;;;;;;43.20;19.98;;;3.80;76.50;;;;;;4961364;28;20173;-85
2021/12/23 10:00:17;;;;;;;40.58;18.33;;;4.10;76.00;;;;;;4957885;29;20191;-84
2021/12/23 10:02:44;;;;;;;46.55;19.38;;;3.90;75.50;;;;;;4958444;29;20173;-84
2021/12/23 10:05:19;;;;;;;45.78;21.45;;;3.70;75.80;;;;;;4942484;29;20192;-84
2021/12/23 10:07:47;;;;;;;50.08;20.80;;;4.00;75.90;;;;;;4958550;29;20648;-84
2021/12/23 10:11:27;;;;;;;45.58;19.83;;;4.20;75.70;;;;;;4961221;29;20189;-84
2021/12/23 10:32:57;;;;;;;50.83;19.65;;;5.40;72.10;;;;;;4959329;29;20229;-85
2021/12/23 10:38:20;;;;;;;34.38;17.05;;;5.50;71.60;;;;;;4959658;29;20363;-85
2021/12/23 10:40:50;;;;;;;44.60;17.20;;;5.60;71.50;;;;;;4957332;29;20200;-85
2021/12/23 10:43:29;;;;;;;51.10;19.10;;;5.70;71.30;;;;;;4957166;29;20240;-85
2021/12/23 10:46:12;;;;;;;34.47;17.58;;;5.70;70.80;;;;;;4957579;29;20177;-85
2021/12/23 10:48:55;;;;;;;43.72;19.88;;;5.60;70.50;;;;;;4958110;29;20180;-86
2021/12/23 10:51:21;;;;;;;46.70;20.05;;;5.70;70.50;;;;;;4957326;29;20208;-85
2021/12/23 10:59:22;;;;;;;46.40;19.45;;;5.80;70.10;;;;;;4958798;29;20204;-85
2021/12/23 11:02:15;;;;;;;36.97;18.58;;;5.80;70.10;;;;;;4957113;28;20215;-85
2021/12/23 11:05:44;;;;;;;42.67;17.27;;;5.60;70.10;;;;;;4941240;29;20180;-85
2021/12/23 11:08:16;;;;;;;38.97;18.42;;;5.60;70.40;;;;;;4956332;29;20496;-85
2021/12/23 11:41:34;;;;;;;39.88;18.98;;;5.90;72.20;;;;;;4944062;28;20244;-85
2021/12/23 11:44:04;;;;;;;28.15;16.10;;;6.00;72.00;;;;;;4958142;28;20658;-85
2021/12/23 11:46:52;;;;;;;38.85;17.55;;;6.10;71.70;;;;;;4956645;29;20191;-85
2021/12/23 11:49:19;;;;;;;38.92;19.65;;;6.20;71.40;;;;;;4942564;29;20556;-85
2021/12/23 11:54:38;;;;;;;35.75;18.77;;;6.20;71.00;;;;;;4959610;28;20169;-85
2021/12/23 11:57:08;;;;;;;36.03;17.10;;;6.10;71.20;;;;;;4958830;29;20201;-85
2021/12/23 11:59:36;;;;;;;33.35;18.27;;;6.10;71.30;;;;;;4958104;29;20212;-85
2021/12/23 12:02:21;;;;;;;37.10;18.35;;;6.20;71.20;;;;;;4957027;29;20213;-85
2021/12/23 12:04:48;;;;;;;38.20;18.98;;;6.20;71.20;;;;;;4958078;29;20184;-85
2021/12/23 12:07:22;;;;;;;29.30;16.52;;;6.40;71.40;;;;;;4940877;29;20181;-85
2021/12/23 12:10:07;;;;;;;38.88;19.00;;;6.50;71.50;;;;;;4957495;29;20184;-85
2021/12/23 12:12:35;;;;;;;33.53;16.92;;;6.20;71.40;;;;;;4964059;28;20180;-85
2021/12/23 12:15:02;;;;;;;41.38;19.70;;;6.30;71.70;;;;;;4974513;28;20199;-84
2021/12/23 12:17:33;;;;;;;35.20;16.58;;;6.40;71.80;;;;;;4976633;29;20195;-84
2021/12/23 12:20:13;;;;;;;40.35;19.48;;;6.40;71.60;;;;;;4974946;29;20200;-85
2021/12/23 12:22:49;;;;;;;35.78;18.17;;;6.50;71.80;;;;;;4976009;29;20169;-84
2021/12/23 12:25:24;;;;;;;38.00;17.13;;;6.60;71.60;;;;;;4974522;29;20176;-84
2021/12/23 12:27:57;;;;;;;38.15;18.25;;;6.80;71.60;;;;;;4969820;29;20192;-84
2021/12/23 12:30:41;;;;;;;55.13;19.80;;;6.70;71.10;;;;;;4963332;29;20173;-85
2021/12/23 12:33:11;;;;;;;33.15;18.15;;;6.70;71.00;;;;;;4968952;29;20298;-85
2021/12/23 12:35:39;;;;;;;37.15;17.98;;;6.80;71.10;;;;;;4968865;29;20224;-85
2021/12/23 12:38:26;;;;;;;42.05;19.85;;;6.90;71.00;;;;;;4973038;29;20285;-84
2021/12/23 12:40:56;;;;;;;37.88;16.65;;;6.90;71.10;;;;;;4974054;28;20196;-84
2021/12/23 12:43:40;;;;;;;30.55;17.23;;;6.70;71.50;;;;;;4967790;29;20192;-85
2021/12/23 12:46:06;;;;;;;34.65;17.13;;;6.70;72.10;;;;;;4961977;29;20184;-84
2021/12/23 12:48:59;;;;;;;36.45;16.30;;;7.00;72.10;;;;;;4962709;29;20184;-85
2021/12/23 12:51:33;;;;;;;31.95;17.05;;;7.10;71.90;;;;;;4961226;29;20201;-84
2021/12/23 12:54:06;;;;;;;45.97;19.80;;;7.20;71.40;;;;;;4964204;29;20240;-85
2021/12/23 12:56:42;;;;;;;48.75;20.13;;;7.20;71.00;;;;;;4967255;29;20237;-84
2021/12/23 12:59:09;;;;;;;46.60;19.15;;;7.30;71.00;;;;;;4965893;29;20310;-84
2021/12/23 13:01:42;;;;;;;31.90;17.67;;;7.40;70.70;;;;;;4966516;29;20197;-84
2021/12/23 13:04:26;;;;;;;53.17;20.55;;;7.40;70.70;;;;;;4977376;29;20279;-84
2021/12/23 13:06:55;;;;;;;42.88;21.33;;;7.50;70.60;;;;;;4972379;29;20193;-84
2021/12/23 13:09:35;;;;;;;43.22;19.63;;;7.40;70.50;;;;;;4968165;28;20181;-85
2021/12/23 13:12:04;;;;;;;35.45;16.70;;;7.50;70.80;;;;;;4960802;29;20322;-85
2021/12/23 13:14:58;;;;;;;33.30;17.17;;;7.40;70.80;;;;;;4959221;29;20200;-86
2021/12/23 13:17:44;;;;;;;37.65;17.95;;;7.40;70.90;;;;;;4959807;29;20180;-86
2021/12/23 13:20:10;;;;;;;32.17;16.90;;;7.30;71.50;;;;;;4959548;29;20200;-85
2021/12/23 13:22:38;;;;;;;38.03;19.37;;;7.20;71.70;;;;;;4960777;28;20256;-85
2021/12/23 13:25:07;;;;;;;38.30;18.48;;;7.10;72.40;;;;;;4942988;29;20515;-85
2021/12/23 13:27:34;;;;;;;45.58;17.95;;;7.10;72.70;;;;;;4958965;29;20203;-84
2021/12/23 13:30:14;;;;;;;40.15;16.75;;;6.90;72.70;;;;;;4959217;29;20188;-85
2021/12/23 13:32:39;;;;;;;35.17;17.73;;;6.90;72.90;;;;;;4956722;29;20235;-86
2021/12/23 13:35:15;;;;;;;32.17;17.17;;;7.00;72.90;;;;;;4958775;29;20648;-85
2021/12/23 13:37:46;;;;;;;38.25;19.20;;;7.00;72.80;;;;;;4958685;29;20200;-85
2021/12/23 13:40:37;;;;;;;35.15;18.45;;;6.90;72.90;;;;;;4942744;29;20771;-85
2021/12/23 13:43:03;;;;;;;38.67;17.75;;;6.90;73.10;;;;;;4958733;29;20643;-85
2021/12/23 13:45:36;;;;;;;29.55;16.90;;;6.80;73.50;;;;;;4959249;29;20180;-85
2021/12/23 13:48:03;;;;;;;41.80;19.15;;;6.70;74.00;;;;;;4958988;29;20183;-86
2021/12/23 13:50:31;;;;;;;42.45;19.15;;;6.90;74.60;;;;;;4959143;28;20204;-85
2021/12/23 13:52:57;;;;;;;39.67;20.75;;;6.80;74.70;;;;;;4942642;29;20188;-85
2021/12/23 13:55:26;;;;;;;44.17;19.25;;;6.80;74.80;;;;;;4958895;29;20180;-85
2021/12/23 13:58:10;;;;;;;34.75;19.58;;;6.70;75.00;;;;;;4959389;28;20577;-85